createdAt,value
2023-04-07T00:01:13.998Z,12.10
2023-04-07T00:03:46.949Z,11.20
2023-04-07T00:06:21.337Z,13.20
2023-04-07T00:08:54.187Z,12.02
2023-04-07T00:11:27.075Z,12.45
2023-04-07T00:13:59.851Z,13.98
2023-04-07T00:16:33.145Z,13.65
2023-04-07T00:19:06.200Z,11.48
2023-04-07T00:21:41.298Z,13.40
2023-04-07T00:24:18.544Z,11.60
2023-04-07T00:27:00.941Z,12.48
2023-04-07T00:29:33.757Z,11.25
2023-04-07T00:32:06.579Z,12.43
2023-04-07T00:34:39.486Z,13.05
2023-04-07T00:37:13.914Z,13.70
2023-04-07T00:39:47.357Z,11.50
2023-04-07T00:42:20.354Z,14.90
2023-04-07T00:44:53.282Z,12.88
2023-04-07T00:47:27.031Z,12.43
2023-04-07T00:49:59.999Z,14.73
2023-04-07T00:52:35.296Z,13.20
2023-04-07T00:55:09.122Z,14.02
2023-04-07T00:57:42.004Z,11.93
2023-04-07T01:00:16.622Z,9.65
2023-04-07T01:02:58.830Z,13.15
2023-04-07T01:05:39.957Z,11.95
2023-04-07T01:08:21.407Z,9.75
2023-04-07T01:10:59.744Z,11.82
2023-04-07T01:13:36.547Z,12.00
2023-04-07T01:16:25.299Z,11.23
2023-04-07T01:19:14.801Z,11.35
2023-04-07T01:21:54.166Z,11.50
2023-04-07T01:25:03.604Z,12.07
2023-04-07T01:27:43.873Z,15.00
2023-04-07T01:30:19.390Z,11.55
2023-04-07T01:32:54.262Z,11.93
2023-04-07T01:35:30.667Z,15.25
2023-04-07T01:38:04.797Z,11.82
2023-04-07T01:40:40.445Z,13.35
2023-04-07T01:43:14.487Z,14.13
2023-04-07T01:45:49.923Z,11.38
2023-04-07T01:48:23.728Z,13.52
2023-04-07T01:50:57.959Z,15.68
2023-04-07T01:53:31.667Z,15.45
2023-04-07T01:56:04.833Z,14.68
2023-04-07T01:58:40.040Z,14.77
2023-04-07T02:01:17.193Z,12.63
2023-04-07T02:03:56.218Z,14.10
2023-04-07T02:06:34.403Z,13.68
2023-04-07T02:09:11.873Z,13.07
2023-04-07T02:11:47.123Z,15.32
2023-04-07T02:14:24.355Z,12.80
2023-04-07T02:17:17.858Z,14.10
2023-04-07T02:19:52.835Z,11.63
2023-04-07T02:22:30.575Z,17.40
2023-04-07T02:25:03.788Z,11.38
2023-04-07T02:27:39.934Z,13.48
2023-04-07T02:30:13.642Z,10.93
2023-04-07T02:32:48.378Z,11.73
2023-04-07T02:35:24.848Z,13.57
2023-04-07T02:37:58.087Z,15.57
2023-04-07T02:40:31.537Z,13.98
2023-04-07T02:43:07.473Z,14.45
2023-04-07T02:45:40.505Z,13.25
2023-04-07T02:48:14.862Z,13.57
2023-04-07T02:50:49.238Z,11.23
2023-04-07T02:53:22.941Z,16.60
2023-04-07T02:55:56.169Z,12.77
2023-04-07T02:58:29.136Z,13.00
2023-04-07T03:01:02.146Z,14.18
2023-04-07T03:03:40.055Z,15.63
2023-04-07T03:06:18.246Z,14.70
2023-04-07T03:09:02.990Z,12.70
2023-04-07T03:11:35.936Z,12.27
2023-04-07T03:14:09.425Z,14.25
2023-04-07T03:16:49.646Z,13.40
2023-04-07T03:19:24.153Z,13.38
2023-04-07T03:21:58.592Z,13.90
2023-04-07T03:24:31.975Z,13.05
2023-04-07T03:27:05.964Z,13.48
2023-04-07T03:29:47.912Z,16.88
2023-04-07T03:32:22.621Z,14.63
2023-04-07T03:34:57.211Z,11.98
2023-04-07T03:37:30.438Z,11.30
2023-04-07T03:40:03.419Z,11.13
2023-04-07T03:42:41.020Z,13.18
2023-04-07T03:45:14.936Z,11.70
2023-04-07T03:47:54.277Z,10.63
2023-04-07T03:50:29.491Z,13.45
2023-04-07T03:53:22.530Z,14.55
2023-04-07T03:55:57.557Z,11.75
2023-04-07T03:58:47.110Z,11.70
2023-04-07T04:01:25.973Z,15.75
2023-04-07T04:04:00.256Z,14.70
2023-04-07T04:06:37.157Z,16.55
2023-04-07T04:09:18.684Z,14.88
2023-04-07T04:11:54.175Z,16.48
2023-04-07T04:14:26.992Z,14.45
2023-04-07T04:17:05.872Z,14.35
2023-04-07T04:19:47.072Z,12.38
2023-04-07T04:22:32.822Z,13.85
2023-04-07T04:25:06.266Z,13.38
2023-04-07T04:27:39.754Z,14.95
2023-04-07T04:30:21.363Z,14.32
2023-04-07T04:33:01.414Z,13.97
2023-04-07T04:35:41.956Z,14.50
2023-04-07T04:38:20.647Z,13.85
2023-04-07T04:41:13.898Z,14.20
2023-04-07T04:43:47.852Z,15.30
2023-04-07T04:46:24.633Z,13.32
2023-04-07T04:48:57.999Z,14.18
2023-04-07T04:51:31.846Z,13.93
2023-04-07T04:54:11.394Z,15.40
2023-04-07T04:56:44.551Z,20.80
2023-04-07T04:59:17.625Z,19.73
2023-04-07T05:02:02.127Z,21.42
2023-04-07T05:04:36.789Z,17.48
2023-04-07T05:07:26.714Z,15.32
2023-04-07T05:10:01.435Z,13.07
2023-04-07T05:12:35.476Z,15.40
2023-04-07T05:15:09.507Z,17.50
2023-04-07T05:17:42.908Z,14.98
2023-04-07T05:20:19.776Z,15.95
2023-04-07T05:22:52.697Z,18.95
2023-04-07T05:25:30.919Z,20.15
2023-04-07T05:28:08.100Z,16.48
2023-04-07T05:30:41.017Z,15.60
2023-04-07T05:33:14.448Z,14.98
2023-04-07T05:35:58.973Z,14.98
2023-04-07T05:38:32.054Z,17.10
2023-04-07T05:41:13.258Z,18.60
2023-04-07T05:43:46.885Z,18.38
2023-04-07T05:46:21.602Z,16.40
2023-04-07T05:49:02.608Z,19.05
2023-04-07T05:51:38.363Z,16.40
2023-04-07T05:54:16.560Z,18.05
2023-04-07T05:56:51.195Z,17.13
2023-04-07T05:59:24.572Z,16.90
2023-04-07T06:01:58.539Z,17.27
2023-04-07T06:04:32.939Z,18.83
2023-04-07T06:07:06.392Z,17.48
2023-04-07T06:09:39.105Z,20.02
2023-04-07T06:12:13.506Z,17.45
2023-04-07T06:14:52.675Z,23.00
2023-04-07T06:17:25.777Z,20.63
2023-04-07T06:19:58.494Z,17.33
2023-04-07T06:22:31.274Z,17.73
2023-04-07T06:25:04.070Z,17.50
2023-04-07T06:27:39.453Z,17.20
2023-04-07T06:30:12.923Z,20.13
2023-04-07T06:32:45.718Z,20.10
2023-04-07T06:35:18.642Z,19.27
2023-04-07T06:37:51.445Z,19.50
2023-04-07T06:40:24.225Z,20.33
2023-04-07T06:42:58.593Z,20.90
2023-04-07T06:45:42.838Z,20.52
2023-04-07T06:48:16.184Z,20.40
2023-04-07T06:50:50.857Z,22.02
2023-04-07T06:53:23.808Z,20.88
2023-04-07T06:56:04.393Z,20.38
2023-04-07T07:01:11.638Z,21.63
2023-04-07T07:03:44.887Z,23.38
2023-04-07T07:06:17.795Z,24.40
2023-04-07T07:08:50.984Z,20.73
2023-04-07T07:11:23.757Z,21.55
2023-04-07T07:13:57.847Z,22.95
2023-04-07T07:16:30.810Z,29.40
2023-04-07T07:19:03.658Z,22.38
2023-04-07T07:21:36.571Z,21.70
2023-04-07T07:24:09.537Z,22.60
2023-04-07T07:26:44.517Z,21.23
2023-04-07T07:29:18.974Z,21.23
2023-04-07T07:31:52.513Z,21.20
2023-04-07T07:34:26.380Z,22.50
2023-04-07T07:36:59.973Z,22.13
2023-04-07T07:39:33.113Z,20.73
2023-04-07T07:42:06.069Z,23.83
2023-04-07T07:44:40.336Z,24.15
2023-04-07T07:47:13.535Z,21.17
2023-04-07T07:49:46.490Z,23.23
2023-04-07T07:52:20.714Z,22.50
2023-04-07T07:54:55.196Z,20.38
2023-04-07T07:57:28.136Z,21.35
2023-04-07T08:00:03.000Z,21.35
2023-04-07T08:02:46.572Z,22.95
2023-04-07T08:05:19.614Z,27.55
2023-04-07T08:07:54.667Z,27.73
2023-04-07T08:10:27.744Z,25.35
2023-04-07T08:13:00.862Z,21.52
2023-04-07T08:15:35.179Z,20.80
2023-04-07T08:18:11.137Z,22.17
2023-04-07T08:20:43.959Z,22.98
2023-04-07T08:23:16.753Z,25.38
2023-04-07T08:25:49.556Z,19.67
2023-04-07T08:28:23.135Z,23.83
2023-04-07T08:30:57.333Z,19.27
2023-04-07T08:33:30.101Z,24.98
2023-04-07T08:36:03.094Z,20.42
2023-04-07T08:38:35.953Z,18.10
2023-04-07T08:41:11.776Z,20.27
2023-04-07T08:43:47.173Z,23.83
2023-04-07T08:46:23.792Z,19.25
2023-04-07T08:48:58.401Z,19.70
2023-04-07T08:51:33.152Z,20.27
2023-04-07T08:54:10.538Z,19.35
2023-04-07T08:56:44.425Z,15.50
2023-04-07T08:59:18.767Z,16.90
2023-04-07T09:01:53.750Z,17.60
2023-04-07T09:04:27.584Z,19.88
2023-04-07T09:07:02.085Z,20.30
2023-04-07T09:09:35.001Z,18.13
2023-04-07T09:12:07.886Z,17.95
2023-04-07T09:14:41.175Z,16.67
2023-04-07T09:17:15.376Z,19.83
2023-04-07T09:19:48.283Z,18.83
2023-04-07T09:22:36.020Z,19.02
2023-04-07T09:25:14.614Z,17.27
2023-04-07T09:27:58.882Z,18.52
2023-04-07T09:30:33.146Z,29.88
2023-04-07T09:33:07.329Z,17.00
2023-04-07T09:35:53.404Z,21.63
2023-04-07T09:38:34.418Z,24.17
2023-04-07T09:41:09.087Z,23.80
2023-04-07T09:43:44.948Z,43.95
2023-04-07T09:46:19.720Z,78.97
2023-04-07T09:49:05.059Z,24.98
2023-04-07T09:51:38.170Z,17.45
2023-04-07T09:54:11.519Z,22.38
2023-04-07T09:56:46.185Z,14.73
2023-04-07T09:59:19.592Z,17.38
2023-04-07T10:01:55.029Z,16.00
2023-04-07T10:04:30.931Z,15.88
2023-04-07T10:07:04.337Z,19.15
2023-04-07T10:09:37.209Z,17.73
2023-04-07T10:12:10.396Z,17.65
2023-04-07T10:14:47.044Z,17.15
2023-04-07T10:17:21.010Z,15.65
2023-04-07T10:19:56.993Z,15.20
2023-04-07T10:22:31.754Z,18.67
2023-04-07T10:25:11.209Z,16.52
2023-04-07T10:27:51.078Z,18.48
2023-04-07T10:30:27.518Z,15.18
2023-04-07T10:33:00.531Z,16.40
2023-04-07T10:36:04.653Z,15.68
2023-04-07T10:38:37.951Z,14.00
2023-04-07T10:41:39.113Z,14.48
2023-04-07T10:45:00.782Z,13.02
2023-04-07T10:47:35.182Z,14.32
2023-04-07T10:50:31.491Z,16.48
2023-04-07T10:53:13.392Z,14.38
2023-04-07T10:56:04.289Z,14.48
2023-04-07T10:58:46.751Z,13.65
2023-04-07T11:01:21.771Z,14.45
2023-04-07T11:04:01.009Z,14.18
2023-04-07T11:06:34.673Z,16.92
2023-04-07T11:09:20.355Z,16.30
2023-04-07T11:11:53.570Z,14.68
2023-04-07T11:14:30.656Z,13.73
2023-04-07T11:17:04.232Z,16.17
2023-04-07T11:19:52.086Z,14.20
2023-04-07T11:22:29.941Z,14.35
2023-04-07T11:25:05.492Z,14.00
2023-04-07T11:27:38.573Z,13.63
2023-04-07T11:30:13.622Z,12.73
2023-04-07T11:32:50.849Z,13.50
2023-04-07T11:35:24.339Z,14.50
2023-04-07T11:38:01.965Z,12.35
2023-04-07T11:40:38.692Z,12.70
2023-04-07T11:43:19.259Z,12.73
2023-04-07T11:48:47.404Z,11.95
2023-04-07T11:51:23.975Z,11.45
2023-04-07T11:53:57.571Z,11.60
2023-04-07T11:56:31.820Z,13.60
2023-04-07T11:59:04.933Z,14.52
2023-04-07T12:01:42.021Z,13.32
2023-04-07T12:04:16.196Z,12.63
2023-04-07T12:06:50.055Z,14.20
2023-04-07T12:09:32.465Z,14.23
2023-04-07T12:12:08.764Z,12.55
2023-04-07T12:14:41.659Z,12.27
2023-04-07T12:17:22.087Z,11.93
2023-04-07T12:19:54.941Z,10.70
2023-04-07T12:22:28.402Z,9.98
2023-04-07T12:25:01.287Z,11.13
2023-04-07T12:27:42.904Z,10.43
2023-04-07T12:30:16.682Z,10.35
2023-04-07T12:32:49.667Z,9.98
2023-04-07T12:35:22.928Z,9.27
2023-04-07T12:37:56.772Z,12.32
2023-04-07T12:40:29.659Z,10.00
2023-04-07T12:43:07.540Z,11.10
2023-04-07T12:45:40.468Z,9.13
2023-04-07T12:48:13.670Z,10.68
2023-04-07T12:50:46.595Z,10.95
2023-04-07T12:53:20.001Z,10.13
2023-04-07T12:55:52.869Z,10.20
2023-04-07T12:58:27.514Z,13.93
2023-04-07T13:01:00.907Z,10.60
2023-04-07T13:03:34.278Z,8.65
2023-04-07T13:06:07.537Z,9.43
2023-04-07T13:08:41.404Z,10.38
2023-04-07T13:11:14.540Z,9.75
2023-04-07T13:13:49.158Z,10.00
2023-04-07T13:16:22.072Z,11.05
2023-04-07T13:18:54.878Z,8.95
2023-04-07T13:21:45.412Z,9.30
2023-04-07T13:24:21.673Z,8.82
2023-04-07T13:26:54.787Z,8.20
2023-04-07T13:29:29.626Z,8.23
2023-04-07T13:32:07.407Z,9.98
2023-04-07T13:34:41.213Z,8.85
2023-04-07T13:37:14.031Z,8.35
2023-04-07T13:39:46.957Z,9.75
2023-04-07T13:42:20.959Z,9.90
2023-04-07T13:45:00.333Z,10.20
2023-04-07T13:47:36.717Z,10.23
2023-04-07T13:50:10.630Z,7.75
2023-04-07T13:52:46.386Z,8.75
2023-04-07T13:55:20.407Z,9.40
2023-04-07T13:57:53.170Z,8.85
2023-04-07T14:00:27.371Z,7.90
2023-04-07T14:03:00.515Z,7.43
2023-04-07T14:05:33.599Z,8.27
2023-04-07T14:08:06.505Z,8.32
2023-04-07T14:10:40.858Z,9.07
2023-04-07T14:13:13.746Z,7.18
2023-04-07T14:15:48.796Z,7.72
2023-04-07T14:18:21.655Z,7.93
2023-04-07T14:20:54.481Z,10.05
2023-04-07T14:23:36.686Z,8.38
2023-04-07T14:26:12.254Z,9.70
2023-04-07T14:28:45.186Z,7.35
2023-04-07T14:31:19.735Z,7.85
2023-04-07T14:33:52.898Z,7.97
2023-04-07T14:36:26.057Z,7.28
2023-04-07T14:38:59.312Z,6.28
2023-04-07T14:41:32.611Z,7.78
2023-04-07T14:44:06.287Z,7.60
2023-04-07T14:46:41.916Z,6.82
2023-04-07T14:49:15.716Z,6.18
2023-04-07T14:51:48.709Z,5.15
2023-04-07T14:54:21.953Z,5.25
2023-04-07T14:56:54.928Z,3.92
2023-04-07T14:59:27.828Z,6.50
2023-04-07T15:02:02.659Z,4.88
2023-04-07T15:04:36.549Z,6.57
2023-04-07T15:07:09.673Z,7.15
2023-04-07T15:09:42.673Z,7.50
2023-04-07T15:12:15.903Z,7.13
2023-04-07T15:14:53.859Z,6.47
2023-04-07T15:17:42.420Z,8.55
2023-04-07T15:20:16.240Z,11.63
2023-04-07T15:22:49.237Z,7.18
2023-04-07T15:25:23.485Z,8.13
2023-04-07T15:27:56.659Z,7.85
2023-04-07T15:30:34.707Z,8.68
2023-04-07T15:33:10.089Z,9.27
2023-04-07T15:35:44.053Z,8.23
2023-04-07T15:38:17.329Z,8.00
2023-04-07T15:40:50.607Z,8.48
2023-04-07T15:43:23.591Z,10.63
2023-04-07T15:45:57.137Z,10.82
2023-04-07T15:48:31.459Z,12.60
2023-04-07T15:51:04.407Z,9.55
2023-04-07T15:53:37.499Z,9.85
2023-04-07T15:56:12.517Z,8.48
2023-04-07T15:58:47.181Z,9.18
2023-04-07T16:01:20.470Z,8.00
2023-04-07T16:03:55.092Z,7.25
2023-04-07T16:06:28.146Z,7.28
2023-04-07T16:09:01.261Z,7.47
2023-04-07T16:11:34.282Z,7.63
2023-04-07T16:14:09.038Z,5.78
2023-04-07T16:16:44.502Z,7.38
2023-04-07T16:19:19.019Z,6.20
2023-04-07T16:21:52.077Z,7.45
2023-04-07T16:24:24.926Z,7.15
2023-04-07T16:26:57.928Z,7.60
2023-04-07T16:29:30.850Z,7.43
2023-04-07T16:32:04.472Z,8.68
2023-04-07T16:34:38.671Z,7.68
2023-04-07T16:37:11.666Z,10.32
2023-04-07T16:39:44.628Z,7.00
2023-04-07T16:42:17.619Z,8.98
2023-04-07T16:44:50.646Z,9.15
2023-04-07T16:47:23.458Z,7.80
2023-04-07T16:49:58.678Z,5.90
2023-04-07T16:52:31.854Z,7.25
2023-04-07T16:55:05.233Z,5.55
2023-04-07T16:57:38.001Z,6.22
2023-04-07T17:00:11.844Z,6.93
2023-04-07T17:02:44.918Z,6.10
2023-04-07T17:05:19.389Z,6.25
2023-04-07T17:07:52.574Z,4.68
2023-04-07T17:10:25.548Z,5.65
2023-04-07T17:12:58.430Z,5.97
2023-04-07T17:15:31.352Z,7.80
2023-04-07T17:18:04.424Z,6.40
2023-04-07T17:20:39.147Z,10.90
2023-04-07T17:23:12.290Z,8.32
2023-04-07T17:25:45.157Z,10.00
2023-04-07T17:28:19.729Z,10.77
2023-04-07T17:30:52.474Z,9.40
2023-04-07T17:33:25.619Z,12.30
2023-04-07T17:36:02.478Z,13.27
2023-04-07T17:38:35.365Z,10.68
2023-04-07T17:41:08.457Z,10.10
2023-04-07T17:43:41.227Z,11.85
2023-04-07T17:46:14.000Z,20.35
2023-04-07T17:48:46.965Z,35.35
2023-04-07T17:51:21.265Z,17.45
2023-04-07T17:53:54.860Z,13.88
2023-04-07T17:56:27.731Z,16.10
2023-04-07T17:59:01.367Z,14.38
2023-04-07T18:01:34.511Z,14.82
2023-04-07T18:04:07.413Z,14.57
2023-04-07T18:06:41.961Z,15.50
2023-04-07T18:09:14.884Z,14.20
2023-04-07T18:11:47.991Z,11.20
2023-04-07T18:14:20.781Z,13.15
2023-04-07T18:16:54.670Z,13.73
2023-04-07T18:19:29.888Z,16.55
2023-04-07T18:22:04.269Z,13.38
2023-04-07T18:24:37.194Z,12.23
2023-04-07T18:27:10.116Z,13.35
2023-04-07T18:29:43.073Z,15.77
2023-04-07T18:32:16.215Z,14.88
2023-04-07T18:34:49.104Z,17.00
2023-04-07T18:37:23.351Z,14.23
2023-04-07T18:39:56.669Z,14.45
2023-04-07T18:42:29.656Z,13.15
2023-04-07T18:45:02.522Z,15.50
2023-04-07T18:47:35.972Z,14.65
2023-04-07T18:50:09.839Z,21.30
2023-04-07T18:52:44.150Z,16.40
2023-04-07T18:55:16.916Z,21.77
2023-04-07T18:57:49.837Z,19.52
2023-04-07T19:00:22.758Z,18.92
2023-04-07T19:02:55.721Z,22.23
2023-04-07T19:05:29.085Z,20.10
2023-04-07T19:08:03.975Z,22.88
2023-04-07T19:10:36.796Z,19.65
2023-04-07T19:13:09.742Z,18.10
2023-04-07T19:15:46.181Z,20.08
2023-04-07T19:18:19.949Z,16.85
2023-04-07T19:20:53.054Z,21.35
2023-04-07T19:23:27.295Z,19.05
2023-04-07T19:26:00.884Z,18.60
2023-04-07T19:28:34.663Z,17.33
2023-04-07T19:31:08.603Z,17.50
2023-04-07T19:33:41.638Z,21.20
2023-04-07T19:36:14.668Z,18.95
2023-04-07T19:38:49.178Z,19.30
2023-04-07T19:41:22.312Z,19.65
2023-04-07T19:43:55.073Z,20.98
2023-04-07T19:46:29.049Z,20.45
2023-04-07T19:49:01.945Z,19.90
2023-04-07T19:51:35.289Z,19.08
2023-04-07T19:54:09.536Z,21.77
2023-04-07T19:56:42.344Z,25.38
2023-04-07T19:59:15.626Z,25.98
2023-04-07T20:01:48.631Z,31.48
2023-04-07T20:04:21.932Z,29.00
2023-04-07T20:06:55.238Z,29.45
2023-04-07T20:09:29.558Z,28.90
2023-04-07T20:12:02.459Z,27.75
2023-04-07T20:14:35.613Z,23.92
2023-04-07T20:17:08.717Z,23.98
2023-04-07T20:19:42.228Z,27.00
2023-04-07T20:22:15.029Z,27.80
2023-04-07T20:24:49.514Z,27.15
2023-04-07T20:27:22.286Z,23.23
2023-04-07T20:29:55.118Z,27.45
2023-04-07T20:32:29.027Z,28.92
2023-04-07T20:35:03.100Z,23.58
2023-04-07T20:37:35.948Z,23.58
2023-04-07T20:40:11.330Z,25.77
2023-04-07T20:42:44.125Z,27.85
2023-04-07T20:45:17.122Z,22.38
2023-04-07T20:47:50.128Z,21.88
2023-04-07T20:50:23.029Z,21.80
2023-04-07T20:52:56.322Z,20.70
2023-04-07T20:55:30.624Z,20.10
2023-04-07T20:58:03.634Z,20.90
2023-04-07T21:00:37.397Z,22.73
2023-04-07T21:03:10.602Z,20.70
2023-04-07T21:05:45.880Z,26.85
2023-04-07T21:08:20.012Z,26.45
2023-04-07T21:10:54.588Z,24.05
2023-04-07T21:13:29.239Z,23.17
2023-04-07T21:16:03.908Z,27.73
2023-04-07T21:18:37.986Z,28.42
2023-04-07T21:21:11.280Z,28.70
2023-04-07T21:23:44.125Z,28.55
2023-04-07T21:26:19.113Z,24.05
2023-04-07T21:28:52.152Z,29.92
2023-04-07T21:31:25.687Z,23.70
2023-04-07T21:33:58.695Z,29.60
2023-04-07T21:36:32.825Z,28.27
2023-04-07T21:39:07.090Z,24.55
2023-04-07T21:41:42.009Z,26.00
2023-04-07T21:44:19.860Z,26.50
2023-04-07T21:46:52.772Z,26.30
2023-04-07T21:49:26.036Z,21.88
2023-04-07T21:52:00.168Z,22.02
2023-04-07T21:54:33.656Z,22.73
2023-04-07T21:57:08.163Z,24.52
2023-04-07T21:59:41.425Z,19.45
2023-04-07T22:02:14.797Z,23.95
2023-04-07T22:04:47.882Z,23.58
2023-04-07T22:07:20.735Z,21.73
2023-04-07T22:09:53.672Z,22.17
2023-04-07T22:12:27.849Z,20.67
2023-04-07T22:15:00.842Z,22.85
2023-04-07T22:17:36.275Z,20.67
2023-04-07T22:20:11.376Z,20.35
2023-04-07T22:22:44.230Z,21.50
2023-04-07T22:25:17.394Z,20.92
2023-04-07T22:27:52.515Z,20.08
2023-04-07T22:30:25.856Z,24.38
2023-04-07T22:32:59.021Z,20.45
2023-04-07T22:35:32.191Z,19.50
2023-04-07T22:38:05.537Z,18.17
2023-04-07T22:40:38.420Z,22.02
2023-04-07T22:43:12.709Z,20.35
2023-04-07T22:45:45.755Z,23.20
2023-04-07T22:48:19.278Z,17.55
2023-04-07T22:50:52.620Z,20.25
2023-04-07T22:53:26.055Z,19.83
2023-04-07T22:55:58.917Z,17.63
2023-04-07T22:58:33.237Z,17.73
2023-04-07T23:01:06.473Z,17.70
2023-04-07T23:03:39.447Z,18.55
2023-04-07T23:06:12.465Z,19.55
2023-04-07T23:08:46.603Z,18.63
2023-04-07T23:11:20.961Z,19.60
2023-04-07T23:13:56.393Z,20.73
2023-04-07T23:16:29.281Z,20.63
2023-04-07T23:19:02.155Z,18.42
2023-04-07T23:21:34.959Z,18.90
2023-04-07T23:24:07.886Z,16.42
2023-04-07T23:26:40.780Z,17.38
2023-04-07T23:29:14.979Z,20.58
2023-04-07T23:31:48.638Z,18.30
2023-04-07T23:34:21.613Z,18.52
2023-04-07T23:36:54.536Z,22.25
2023-04-07T23:39:27.586Z,18.08
2023-04-07T23:42:00.556Z,20.45
2023-04-07T23:44:34.768Z,20.27
2023-04-07T23:47:07.732Z,22.80
2023-04-07T23:49:40.610Z,22.08
2023-04-07T23:52:13.478Z,22.90
2023-04-07T23:54:46.279Z,20.85
2023-04-07T23:57:19.093Z,18.85
2023-04-07T23:59:53.689Z,20.77
